createdAt,value
2023-03-31T00:00:18.712Z,54.37
2023-03-31T00:02:47.388Z,53.82
2023-03-31T00:05:18.013Z,53.72
2023-03-31T00:07:45.915Z,53.56
2023-03-31T00:10:18.392Z,53.48
2023-03-31T00:12:45.905Z,53.71
2023-03-31T00:15:12.622Z,53.92
2023-03-31T00:17:39.900Z,53.84
2023-03-31T00:20:12.093Z,53.33
2023-03-31T00:22:42.058Z,53.08
2023-03-31T00:25:11.050Z,52.74
2023-03-31T00:27:37.911Z,52.64
2023-03-31T00:30:04.952Z,52.47
2023-03-31T00:32:33.280Z,52.48
2023-03-31T00:35:02.252Z,52.39
2023-03-31T00:37:29.526Z,52.48
2023-03-31T00:39:56.739Z,52.48
2023-03-31T00:42:23.710Z,51.98
2023-03-31T00:45:14.951Z,51.67
2023-03-31T00:47:45.076Z,51.60
2023-03-31T00:50:22.247Z,51.67
2023-03-31T00:52:55.535Z,51.55
2023-03-31T00:55:28.464Z,51.88
2023-03-31T00:57:55.913Z,51.64
2023-03-31T01:00:24.173Z,51.92
2023-03-31T01:02:58.688Z,51.81
2023-03-31T01:05:43.757Z,51.38
2023-03-31T01:08:10.887Z,51.58
2023-03-31T01:10:42.086Z,51.65
2023-03-31T01:13:14.915Z,51.32
2023-03-31T01:15:42.517Z,51.17
2023-03-31T01:18:11.354Z,51.17
2023-03-31T01:21:08.550Z,50.72
2023-03-31T01:23:35.038Z,50.81
2023-03-31T01:26:30.227Z,51.31
2023-03-31T01:29:18.865Z,51.64
2023-03-31T01:32:11.494Z,50.91
2023-03-31T01:35:02.164Z,51.35
2023-03-31T01:37:37.760Z,51.08
2023-03-31T01:40:39.748Z,51.37
2023-03-31T01:43:34.854Z,51.90
2023-03-31T01:46:03.660Z,51.25
2023-03-31T01:48:49.052Z,51.27
2023-03-31T01:51:27.697Z,50.75
2023-03-31T01:54:01.937Z,50.79
2023-03-31T01:56:38.689Z,51.13
2023-03-31T01:59:18.415Z,50.92
2023-03-31T02:02:02.081Z,50.90
2023-03-31T02:04:33.979Z,50.95
2023-03-31T02:07:07.717Z,51.33
2023-03-31T02:09:41.343Z,50.75
2023-03-31T02:12:11.171Z,51.46
2023-03-31T02:14:45.005Z,51.06
2023-03-31T02:17:18.257Z,51.12
2023-03-31T02:19:51.708Z,51.37
2023-03-31T02:22:21.752Z,51.25
2023-03-31T02:24:51.396Z,51.35
2023-03-31T02:27:22.979Z,50.90
2023-03-31T02:29:50.567Z,50.72
2023-03-31T02:32:37.917Z,50.73
2023-03-31T02:35:06.135Z,50.47
2023-03-31T02:37:34.465Z,50.69
2023-03-31T02:40:10.413Z,50.83
2023-03-31T02:42:41.372Z,50.42
2023-03-31T02:45:53.838Z,50.46
2023-03-31T02:48:30.082Z,50.30
2023-03-31T02:51:09.072Z,50.23
2023-03-31T02:54:19.557Z,50.25
2023-03-31T02:57:36.361Z,50.63
2023-03-31T03:00:10.303Z,50.87
2023-03-31T03:03:27.578Z,51.48
2023-03-31T03:06:27.841Z,52.46
2023-03-31T03:09:39.082Z,52.28
2023-03-31T03:12:16.410Z,52.15
2023-03-31T03:15:05.160Z,52.36
2023-03-31T03:17:39.836Z,52.79
2023-03-31T03:20:09.470Z,53.18
2023-03-31T03:22:37.618Z,53.64
2023-03-31T03:25:06.170Z,54.00
2023-03-31T03:27:32.726Z,55.39
2023-03-31T03:29:59.269Z,55.80
2023-03-31T03:32:25.970Z,56.11
2023-03-31T03:34:52.600Z,55.85
2023-03-31T03:37:19.169Z,57.65
2023-03-31T03:39:46.044Z,57.00
2023-03-31T03:42:12.633Z,57.16
2023-03-31T03:44:39.159Z,57.25
2023-03-31T03:47:05.745Z,57.28
2023-03-31T03:49:32.314Z,57.63
2023-03-31T03:51:59.100Z,57.69
2023-03-31T03:54:25.801Z,58.51
2023-03-31T03:56:52.436Z,58.01
2023-03-31T03:59:19.038Z,57.82
2023-03-31T04:01:45.611Z,57.74
2023-03-31T04:04:12.362Z,57.86
2023-03-31T04:06:39.005Z,57.76
2023-03-31T04:09:05.573Z,57.98
2023-03-31T04:11:32.799Z,58.27
2023-03-31T04:13:59.477Z,58.38
2023-03-31T04:16:26.149Z,58.49
2023-03-31T04:18:56.666Z,58.47
2023-03-31T04:21:23.910Z,58.74
2023-03-31T04:23:58.752Z,58.54
2023-03-31T04:26:31.464Z,58.74
2023-03-31T04:29:01.622Z,58.69
2023-03-31T04:31:30.681Z,59.24
2023-03-31T04:34:02.642Z,59.48
2023-03-31T04:36:31.283Z,59.31
2023-03-31T04:38:58.321Z,59.14
2023-03-31T04:41:27.588Z,59.64
2023-03-31T04:43:54.444Z,59.46
2023-03-31T04:46:21.772Z,59.46
2023-03-31T04:48:48.448Z,59.33
2023-03-31T04:51:16.276Z,59.70
2023-03-31T04:53:42.877Z,59.33
2023-03-31T04:56:09.676Z,59.66
2023-03-31T04:58:36.623Z,59.33
2023-03-31T05:01:03.535Z,59.42
2023-03-31T05:03:31.667Z,59.70
2023-03-31T05:05:58.296Z,59.76
2023-03-31T05:08:24.883Z,59.59
2023-03-31T05:10:51.412Z,59.61
2023-03-31T05:13:17.964Z,59.64
2023-03-31T05:15:45.349Z,59.97
2023-03-31T05:18:12.072Z,59.97
2023-03-31T05:20:39.084Z,59.44
2023-03-31T05:23:06.865Z,59.56
2023-03-31T05:25:33.903Z,59.46
2023-03-31T05:28:01.418Z,59.77
2023-03-31T05:30:29.701Z,59.59
2023-03-31T05:32:56.903Z,59.65
2023-03-31T05:35:23.601Z,59.31
2023-03-31T05:37:50.323Z,59.49
2023-03-31T05:40:17.013Z,59.35
2023-03-31T05:42:43.593Z,59.18
2023-03-31T05:45:10.487Z,59.64
2023-03-31T05:47:37.294Z,59.45
2023-03-31T05:50:07.829Z,59.36
2023-03-31T05:52:35.436Z,59.01
2023-03-31T05:55:02.196Z,59.34
2023-03-31T05:57:28.800Z,59.32
2023-03-31T05:59:55.515Z,59.12
2023-03-31T06:02:22.195Z,59.31
2023-03-31T06:04:48.776Z,58.89
2023-03-31T06:07:17.711Z,59.12
2023-03-31T06:09:45.608Z,59.22
2023-03-31T06:12:12.155Z,58.68
2023-03-31T06:14:38.707Z,58.72
2023-03-31T06:17:05.440Z,58.77
2023-03-31T06:19:32.040Z,58.86
2023-03-31T06:21:58.854Z,58.74
2023-03-31T06:24:25.552Z,58.37
2023-03-31T06:26:53.717Z,58.37
2023-03-31T06:29:20.702Z,58.29
2023-03-31T06:31:47.447Z,57.96
2023-03-31T06:34:14.090Z,58.23
2023-03-31T06:36:41.400Z,57.76
2023-03-31T06:39:07.958Z,57.96
2023-03-31T06:41:34.634Z,57.72
2023-03-31T06:44:01.172Z,57.61
2023-03-31T06:46:27.784Z,57.17
2023-03-31T06:48:54.612Z,56.82
2023-03-31T06:51:21.387Z,56.64
2023-03-31T06:53:47.892Z,57.32
2023-03-31T06:56:14.559Z,56.62
2023-03-31T06:58:41.095Z,57.55
2023-03-31T07:01:08.242Z,57.66
2023-03-31T07:03:35.674Z,57.73
2023-03-31T07:06:02.428Z,57.95
2023-03-31T07:08:28.976Z,60.53
2023-03-31T07:10:58.481Z,59.75
2023-03-31T07:13:26.207Z,59.19
2023-03-31T07:15:53.614Z,59.73
2023-03-31T07:18:21.083Z,60.71
2023-03-31T07:20:49.966Z,60.83
2023-03-31T07:23:16.843Z,63.57
2023-03-31T07:25:43.901Z,62.12
2023-03-31T07:28:10.529Z,62.04
2023-03-31T07:30:37.176Z,61.66
2023-03-31T07:33:03.884Z,61.66
2023-03-31T07:35:31.393Z,61.35
2023-03-31T07:37:58.398Z,60.76
2023-03-31T07:40:27.830Z,60.33
2023-03-31T07:42:55.313Z,60.14
2023-03-31T07:45:24.620Z,60.09
2023-03-31T07:47:51.464Z,60.50
2023-03-31T07:50:18.965Z,61.24
2023-03-31T07:52:47.437Z,61.17
2023-03-31T07:55:14.707Z,61.21
2023-03-31T07:57:42.152Z,61.16
2023-03-31T08:00:12.283Z,60.60
2023-03-31T08:02:41.514Z,60.04
2023-03-31T08:05:09.487Z,60.08
2023-03-31T08:07:38.103Z,59.47
2023-03-31T08:10:07.629Z,58.85
2023-03-31T08:12:34.340Z,58.61
2023-03-31T08:15:01.194Z,58.92
2023-03-31T08:17:28.274Z,59.37
2023-03-31T08:19:54.946Z,59.92
2023-03-31T08:22:23.201Z,59.65
2023-03-31T08:24:49.838Z,59.17
2023-03-31T08:27:16.947Z,58.87
2023-03-31T08:29:43.530Z,59.29
2023-03-31T08:32:10.272Z,59.72
2023-03-31T08:34:38.184Z,60.37
2023-03-31T08:37:06.043Z,59.41
2023-03-31T08:39:34.096Z,59.63
2023-03-31T08:42:06.041Z,59.91
2023-03-31T08:44:50.626Z,58.63
2023-03-31T08:47:22.874Z,59.68
2023-03-31T08:49:53.536Z,59.41
2023-03-31T08:52:27.062Z,60.70
2023-03-31T08:54:58.535Z,60.54
2023-03-31T08:57:45.448Z,59.03
2023-03-31T09:00:19.348Z,57.88
2023-03-31T09:02:48.778Z,58.02
2023-03-31T09:05:18.442Z,57.38
2023-03-31T09:08:04.861Z,57.41
2023-03-31T09:10:56.407Z,58.55
2023-03-31T09:13:54.065Z,56.80
2023-03-31T09:16:45.769Z,56.03
2023-03-31T09:19:20.573Z,55.82
2023-03-31T09:21:51.649Z,54.84
2023-03-31T09:24:23.710Z,55.02
2023-03-31T09:26:55.844Z,54.23
2023-03-31T09:29:30.028Z,53.19
2023-03-31T09:32:03.086Z,53.33
2023-03-31T09:34:33.690Z,51.37
2023-03-31T09:37:00.191Z,49.91
2023-03-31T09:39:27.191Z,50.43
2023-03-31T09:41:56.598Z,50.40
2023-03-31T09:44:36.485Z,51.33
2023-03-31T09:47:03.931Z,51.10
2023-03-31T09:49:35.358Z,50.18
2023-03-31T09:54:44.505Z,48.64
2023-03-31T09:57:46.664Z,50.33
2023-03-31T10:00:16.601Z,48.50
2023-03-31T10:02:50.541Z,47.54
2023-03-31T10:05:36.523Z,48.35
2023-03-31T10:08:40.208Z,48.03
2023-03-31T10:11:11.285Z,48.46
2023-03-31T10:13:43.310Z,48.69
2023-03-31T10:16:14.268Z,47.80
2023-03-31T10:18:43.671Z,46.93
2023-03-31T10:21:22.335Z,45.88
2023-03-31T10:23:50.393Z,45.50
2023-03-31T10:26:20.463Z,46.70
2023-03-31T10:28:49.876Z,46.30
2023-03-31T10:31:16.574Z,44.98
2023-03-31T10:33:46.160Z,45.24
2023-03-31T10:36:23.682Z,45.37
2023-03-31T10:38:52.311Z,44.22
2023-03-31T10:41:28.296Z,44.20
2023-03-31T10:43:57.536Z,43.67
2023-03-31T10:46:52.342Z,43.21
2023-03-31T10:49:21.888Z,41.85
2023-03-31T10:51:52.121Z,42.02
2023-03-31T10:54:18.841Z,41.50
2023-03-31T10:56:49.693Z,43.28
2023-03-31T10:59:23.189Z,42.46
2023-03-31T11:02:00.296Z,42.93
2023-03-31T11:04:40.355Z,42.37
2023-03-31T11:07:21.279Z,44.10
2023-03-31T11:09:57.742Z,44.63
2023-03-31T11:12:40.392Z,45.07
2023-03-31T11:15:20.699Z,45.19
2023-03-31T11:17:53.626Z,46.66
2023-03-31T11:20:45.589Z,52.09
2023-03-31T11:23:36.740Z,56.17
2023-03-31T11:26:11.430Z,58.29
2023-03-31T11:28:42.831Z,61.43
2023-03-31T11:31:33.324Z,59.94
2023-03-31T11:34:18.070Z,59.54
2023-03-31T11:37:11.699Z,59.82
2023-03-31T11:39:53.646Z,62.32
2023-03-31T11:42:25.976Z,60.11
2023-03-31T11:45:00.367Z,59.97
2023-03-31T11:47:31.158Z,59.07
2023-03-31T11:50:03.063Z,58.64
2023-03-31T11:52:39.617Z,58.51
2023-03-31T11:55:15.355Z,57.37
2023-03-31T11:57:44.397Z,55.86
2023-03-31T12:00:21.177Z,55.01
2023-03-31T12:03:09.389Z,52.30
2023-03-31T12:05:41.774Z,51.95
2023-03-31T12:08:15.715Z,48.82
2023-03-31T12:10:45.074Z,49.25
2023-03-31T12:13:41.305Z,45.92
2023-03-31T12:16:39.169Z,43.43
2023-03-31T12:19:05.906Z,44.35
2023-03-31T12:21:35.078Z,43.72
2023-03-31T12:24:01.742Z,44.97
2023-03-31T12:26:40.172Z,45.74
2023-03-31T12:29:24.599Z,44.41
2023-03-31T12:31:56.220Z,43.12
2023-03-31T12:34:26.365Z,43.39
2023-03-31T12:37:18.670Z,44.66
2023-03-31T12:40:06.284Z,46.18
2023-03-31T12:42:46.104Z,45.77
2023-03-31T12:45:27.563Z,45.53
2023-03-31T12:48:11.137Z,46.18
2023-03-31T12:51:02.493Z,46.89
2023-03-31T12:53:41.169Z,46.80
2023-03-31T12:56:08.552Z,44.50
2023-03-31T12:58:40.668Z,45.43
2023-03-31T13:01:24.389Z,44.06
2023-03-31T13:03:54.970Z,40.32
2023-03-31T13:06:28.526Z,40.98
2023-03-31T13:09:15.696Z,39.83
2023-03-31T13:11:48.002Z,38.95
2023-03-31T13:14:22.319Z,38.54
2023-03-31T13:16:52.217Z,39.23
2023-03-31T13:19:33.260Z,40.20
2023-03-31T13:22:02.776Z,40.75
2023-03-31T13:24:32.123Z,40.35
2023-03-31T13:27:19.386Z,40.64
2023-03-31T13:29:46.525Z,39.08
2023-03-31T13:32:19.231Z,39.36
2023-03-31T13:35:07.642Z,38.19
2023-03-31T13:38:03.160Z,32.77
2023-03-31T13:40:52.882Z,29.80
2023-03-31T13:44:04.488Z,25.66
2023-03-31T13:46:52.882Z,26.93
2023-03-31T13:49:44.248Z,24.21
2023-03-31T13:52:12.511Z,25.02
2023-03-31T13:55:04.441Z,28.52
2023-03-31T13:58:24.628Z,28.82
2023-03-31T14:01:10.322Z,26.94
2023-03-31T14:04:08.119Z,31.19
2023-03-31T14:06:41.617Z,31.05
2023-03-31T14:09:12.430Z,32.55
2023-03-31T14:11:39.187Z,33.98
2023-03-31T14:14:12.735Z,34.60
2023-03-31T14:16:45.768Z,36.90
2023-03-31T14:19:33.716Z,37.04
2023-03-31T14:22:24.531Z,37.84
2023-03-31T14:25:02.797Z,37.48
2023-03-31T14:28:14.590Z,38.58
2023-03-31T14:30:52.901Z,39.69
2023-03-31T14:33:46.411Z,41.45
2023-03-31T14:36:47.879Z,43.90
2023-03-31T14:39:18.891Z,45.59
2023-03-31T14:41:45.417Z,45.25
2023-03-31T14:44:19.146Z,44.92
2023-03-31T14:46:46.676Z,44.71
2023-03-31T14:49:28.048Z,45.04
2023-03-31T14:51:59.945Z,45.38
2023-03-31T14:54:26.533Z,43.58
2023-03-31T14:56:56.552Z,42.63
2023-03-31T14:59:29.997Z,42.69
2023-03-31T18:26:19.346Z,50.26
2023-03-31T18:28:46.371Z,49.79
2023-03-31T18:31:13.128Z,48.91
2023-03-31T18:33:40.681Z,48.41
2023-03-31T18:36:08.037Z,49.07
2023-03-31T18:38:36.739Z,50.34
2023-03-31T18:41:03.566Z,48.90
2023-03-31T18:43:32.006Z,49.22
2023-03-31T18:46:01.242Z,49.04
2023-03-31T18:48:28.179Z,48.57
2023-03-31T18:50:54.727Z,49.29
2023-03-31T18:53:22.524Z,48.71
2023-03-31T18:55:50.336Z,47.85
2023-03-31T18:58:17.367Z,47.98
2023-03-31T19:00:44.212Z,49.21
2023-03-31T19:03:11.000Z,48.17
2023-03-31T19:05:38.729Z,47.48
2023-03-31T19:08:05.647Z,47.57
2023-03-31T19:10:32.484Z,47.20
2023-03-31T19:12:59.203Z,48.31
2023-03-31T19:15:26.751Z,47.65
2023-03-31T19:17:53.428Z,47.02
2023-03-31T19:20:20.576Z,46.88
2023-03-31T19:22:50.098Z,46.58
2023-03-31T19:25:18.934Z,45.83
2023-03-31T19:27:46.750Z,45.29
2023-03-31T19:30:23.455Z,45.25
2023-03-31T19:32:50.180Z,46.07
2023-03-31T19:35:18.613Z,45.83
2023-03-31T19:37:46.570Z,45.68
2023-03-31T19:40:13.453Z,45.27
2023-03-31T19:42:41.961Z,45.95
2023-03-31T19:45:09.021Z,45.15
2023-03-31T19:47:35.703Z,44.66
2023-03-31T19:50:02.394Z,45.20
2023-03-31T19:52:29.371Z,44.48
2023-03-31T19:54:56.000Z,44.43
2023-03-31T19:57:22.654Z,44.50
2023-03-31T19:59:49.282Z,44.33
2023-03-31T20:02:15.947Z,43.71
2023-03-31T20:04:42.731Z,43.39
2023-03-31T20:07:09.343Z,43.02
2023-03-31T20:09:36.278Z,43.92
2023-03-31T20:12:02.950Z,44.21
2023-03-31T20:14:30.203Z,43.87
2023-03-31T20:17:00.724Z,43.23
2023-03-31T20:19:27.648Z,42.66
2023-03-31T20:21:55.827Z,42.76
2023-03-31T20:24:22.332Z,42.86
2023-03-31T20:26:49.944Z,42.51
2023-03-31T20:29:16.654Z,43.62
2023-03-31T20:31:43.264Z,42.96
2023-03-31T20:34:15.059Z,42.69
2023-03-31T20:36:43.761Z,43.53
2023-03-31T20:39:12.832Z,42.82
2023-03-31T20:41:40.101Z,42.01
2023-03-31T20:44:12.642Z,42.02
2023-03-31T20:46:42.005Z,43.24
2023-03-31T20:49:09.077Z,42.02
2023-03-31T20:51:37.621Z,41.58
2023-03-31T20:54:05.375Z,41.51
2023-03-31T20:56:36.846Z,42.01
2023-03-31T20:59:04.464Z,41.81
2023-03-31T21:01:33.450Z,41.87
2023-03-31T21:04:02.222Z,41.31
2023-03-31T21:06:32.622Z,40.65
2023-03-31T21:08:59.330Z,40.94
2023-03-31T21:11:26.545Z,40.75
2023-03-31T21:13:53.204Z,40.90
2023-03-31T21:16:20.536Z,41.92
2023-03-31T21:18:47.808Z,41.80
2023-03-31T21:21:18.732Z,42.89
2023-03-31T21:23:46.612Z,41.51
2023-03-31T21:26:15.528Z,41.29
2023-03-31T21:28:42.811Z,41.56
2023-03-31T21:31:15.217Z,41.51
2023-03-31T21:33:43.294Z,43.30
2023-03-31T21:36:16.299Z,42.46
2023-03-31T21:38:43.170Z,43.49
2023-03-31T21:41:15.660Z,41.12
2023-03-31T21:43:42.484Z,41.68
2023-03-31T21:46:09.569Z,43.20
2023-03-31T21:48:36.133Z,41.78
2023-03-31T21:51:03.146Z,42.05
2023-03-31T21:53:31.425Z,42.29
2023-03-31T21:55:58.745Z,43.08
2023-03-31T21:58:28.630Z,43.29
2023-03-31T22:00:57.400Z,42.85
2023-03-31T22:03:27.516Z,43.26
2023-03-31T22:05:58.589Z,43.45
2023-03-31T22:08:26.991Z,43.82
2023-03-31T22:10:54.581Z,43.70
2023-03-31T22:13:22.888Z,44.52
2023-03-31T22:15:49.801Z,43.52
2023-03-31T22:18:17.385Z,42.71
2023-03-31T22:20:45.551Z,43.29
2023-03-31T22:23:12.122Z,43.54
2023-03-31T22:25:38.657Z,44.36
2023-03-31T22:28:07.231Z,43.77
2023-03-31T22:30:34.527Z,44.36
2023-03-31T22:33:01.357Z,43.96
2023-03-31T22:35:28.276Z,44.39
2023-03-31T22:37:54.859Z,44.81
2023-03-31T22:40:21.637Z,44.88
2023-03-31T22:42:48.209Z,43.29
2023-03-31T22:45:14.902Z,44.53
2023-03-31T22:47:44.310Z,44.71
2023-03-31T22:50:11.346Z,47.13
2023-03-31T22:52:38.250Z,45.92
2023-03-31T22:55:06.128Z,47.42
2023-03-31T22:57:32.965Z,47.93
2023-03-31T22:59:59.580Z,48.16
2023-03-31T23:02:26.285Z,48.91
2023-03-31T23:04:52.839Z,48.36
2023-03-31T23:07:21.740Z,49.06
2023-03-31T23:09:48.848Z,49.69
2023-03-31T23:12:15.474Z,49.97
2023-03-31T23:14:42.096Z,50.11
2023-03-31T23:17:08.633Z,49.20
2023-03-31T23:19:35.407Z,49.48
2023-03-31T23:22:02.549Z,50.80
2023-03-31T23:24:29.922Z,48.55
2023-03-31T23:26:56.497Z,49.62
2023-03-31T23:29:23.291Z,48.33
2023-03-31T23:31:49.948Z,47.94
2023-03-31T23:34:16.558Z,48.57
2023-03-31T23:36:43.419Z,48.63
2023-03-31T23:39:10.537Z,50.29
2023-03-31T23:41:37.072Z,47.71
2023-03-31T23:44:04.537Z,51.23
2023-03-31T23:46:31.922Z,53.51
2023-03-31T23:48:59.425Z,53.41
2023-03-31T23:51:26.125Z,52.68
2023-03-31T23:53:52.834Z,52.88
2023-03-31T23:56:19.785Z,53.52
2023-03-31T23:58:47.014Z,53.36
